Time;durP1;ratioP1;P1;durP2;ratioP2;P2;SDS_P1;SDS_P2;PMS_P1;PMS_P2;Temp;Humidity;BMP_temperature;BMP_pressure;BME280_temperature;BME280_humidity;BME280_pressure;Samples;Min_cycle;Max_cycle;Signal;HPM_P1;HPM_P2
2022/04/29 00:01:03;;;;;;;7.72;4.07;;;;;;;10.46;76.84;101259.25;4454343;32;20120;-67
2022/04/29 00:03:31;;;;;;;4.57;3.17;;;;;;;10.44;76.86;101263.63;4454402;32;20093;-67
2022/04/29 00:05:59;;;;;;;7.00;3.78;;;;;;;10.41;77.28;101258.34;4454149;32;20482;-67
2022/04/29 00:08:28;;;;;;;5.35;3.33;;;;;;;10.43;77.46;101261.88;4454056;32;20628;-67
2022/04/29 00:10:56;;;;;;;6.22;3.50;;;;;;;10.36;77.20;101254.84;4439627;32;20558;-67
2022/04/29 00:13:23;;;;;;;5.22;3.58;;;;;;;10.34;78.40;101257.44;4454029;32;20187;-67
2022/04/29 00:15:52;;;;;;;7.53;3.35;;;;;;;10.31;79.30;101261.84;4453980;32;20210;-67
2022/04/29 00:18:19;;;;;;;4.60;3.55;;;;;;;10.27;78.24;101260.94;4453999;32;20126;-67
2022/04/29 00:20:49;;;;;;;4.12;3.53;;;;;;;10.20;76.77;101265.28;4454347;32;20093;-67
2022/04/29 00:23:16;;;;;;;5.87;3.25;;;;;;;10.14;76.50;101264.37;4453865;32;20093;-67
2022/04/29 00:25:44;;;;;;;4.45;2.97;;;;;;;10.10;78.61;101262.59;4453932;32;20093;-67
2022/04/29 00:28:11;;;;;;;3.92;2.60;;;;;;;10.16;71.07;101263.50;4454026;32;20743;-67
2022/04/29 00:30:38;;;;;;;3.22;2.47;;;;;;;10.25;69.20;101257.41;4453887;32;20092;-67
2022/04/29 00:33:06;;;;;;;3.62;2.62;;;;;;;10.31;67.28;101254.81;4453888;32;20557;-67
2022/04/29 00:35:34;;;;;;;5.62;2.75;;;;;;;10.34;67.74;101254.81;4453970;32;20486;-67
2022/04/29 00:38:01;;;;;;;3.12;2.28;;;;;;;10.50;64.84;101253.13;4453850;32;20126;-67
2022/04/29 00:40:30;;;;;;;3.17;2.62;;;;;;;10.58;64.62;101250.50;4453824;32;20111;-67
2022/04/29 00:42:58;;;;;;;2.65;2.45;;;;;;;10.60;64.16;101252.28;4453821;32;20116;-67
2022/04/29 00:45:25;;;;;;;2.78;2.37;;;;;;;10.64;64.31;101247.88;4453665;32;20515;-67
2022/04/29 00:47:54;;;;;;;3.10;2.78;;;;;;;10.64;63.52;101250.53;4453596;32;20080;-67
2022/04/29 00:50:26;;;;;;;3.03;2.30;;;;;;;10.64;65.13;101247.88;4453656;32;20161;-67
2022/04/29 00:52:55;;;;;;;2.90;2.40;;;;;;;10.67;62.32;101250.50;4453898;32;20140;-67
2022/04/29 00:55:23;;;;;;;7.75;2.90;;;;;;;10.68;63.34;101257.56;4453724;32;20222;-67
2022/04/29 00:58:18;;;;;;;2.17;2.00;;;;;;;10.72;62.73;101252.28;4453451;32;20093;-67
2022/04/29 01:00:45;;;;;;;2.40;2.00;;;;;;;10.72;61.28;101254.91;4453422;32;20156;-67
2022/04/29 01:03:14;;;;;;;3.28;2.45;;;;;;;10.71;61.52;101258.44;4454224;32;20162;-67
2022/04/29 01:05:42;;;;;;;2.10;1.95;;;;;;;10.67;61.62;101255.75;4455550;32;20163;-67
2022/04/29 01:08:10;;;;;;;2.72;2.20;;;;;;;10.67;61.42;101258.41;4455331;32;20497;-67
2022/04/29 01:10:38;;;;;;;4.35;2.15;;;;;;;10.63;61.84;101251.38;4455655;32;20591;-67
2022/04/29 01:13:05;;;;;;;3.78;2.15;;;;;;;10.61;61.81;101251.38;4455242;32;20085;-67
2022/04/29 01:15:33;;;;;;;4.60;2.53;;;;;;;10.56;62.36;101255.75;4455211;32;20105;-67
2022/04/29 01:18:06;;;;;;;2.75;2.17;;;;;;;10.46;62.22;101248.72;4455527;32;20081;-67
2022/04/29 01:20:34;;;;;;;2.62;2.30;;;;;;;10.42;62.02;101250.44;4455471;32;20084;-67
2022/04/29 01:23:06;;;;;;;7.55;2.40;;;;;;;10.40;63.16;101249.56;4455347;32;20618;-67
2022/04/29 01:25:33;;;;;;;2.45;2.15;;;;;;;10.36;62.68;101241.66;4455530;32;20223;-67
2022/04/29 01:28:00;;;;;;;3.53;2.15;;;;;;;10.26;63.23;101243.37;4455253;32;20107;-67
2022/04/29 01:30:28;;;;;;;5.95;2.47;;;;;;;10.18;64.02;101248.59;4455474;32;20640;-67
2022/04/29 01:32:56;;;;;;;2.65;2.30;;;;;;;10.11;64.69;101244.19;4455215;32;20097;-67
2022/04/29 01:35:24;;;;;;;2.67;2.20;;;;;;;10.00;64.57;101246.78;4455193;32;20155;-67
2022/04/29 01:37:51;;;;;;;5.53;2.37;;;;;;;9.95;64.51;101242.34;4455132;32;20127;-67
2022/04/29 01:40:19;;;;;;;3.22;2.50;;;;;;;9.93;64.29;101236.19;4455215;32;20088;-67
2022/04/29 01:42:47;;;;;;;4.18;2.35;;;;;;;9.93;64.37;101238.81;4455391;32;20155;-67
2022/04/29 01:45:14;;;;;;;3.85;2.58;;;;;;;9.94;64.52;101233.59;4455151;32;20131;-67
2022/04/29 01:47:44;;;;;;;3.30;2.42;;;;;;;9.93;69.94;101242.38;4455437;32;20089;-67
2022/04/29 01:50:11;;;;;;;4.03;2.80;;;;;;;9.88;71.37;101235.31;4455301;32;20806;-67
2022/04/29 01:52:39;;;;;;;6.40;2.83;;;;;;;9.78;72.86;101239.63;4455135;32;20105;-67
2022/04/29 01:55:06;;;;;;;3.72;2.85;;;;;;;9.72;73.42;101235.25;4455110;32;20117;-67
2022/04/29 01:57:35;;;;;;;7.45;2.65;;;;;;;9.66;72.12;101234.31;4455430;32;20148;-67
2022/04/29 02:00:04;;;;;;;9.82;2.95;;;;;;;9.56;73.17;101229.00;4455323;32;20092;-67
2022/04/29 02:02:41;;;;;;;5.32;2.58;;;;;;;9.52;74.64;101232.47;4455023;32;20098;-67
2022/04/29 02:05:09;;;;;;;5.37;3.28;;;;;;;9.40;74.90;101234.16;4455270;32;20170;-67
2022/04/29 02:07:36;;;;;;;5.82;2.62;;;;;;;9.33;75.90;101242.03;4455061;32;20120;-67
2022/04/29 02:10:04;;;;;;;4.72;2.90;;;;;;;9.22;76.05;101238.44;4454914;32;20080;-67
2022/04/29 02:12:34;;;;;;;3.22;2.50;;;;;;;9.12;76.61;101231.34;4455168;32;20204;-67
2022/04/29 02:15:07;;;;;;;4.18;2.95;;;;;;;9.09;77.00;101236.56;4454392;32;20108;-67
2022/04/29 02:17:35;;;;;;;4.10;3.30;;;;;;;9.01;75.59;101235.62;4455070;32;20126;-67
2022/04/29 02:20:03;;;;;;;5.93;2.90;;;;;;;8.97;77.42;101236.47;4455164;32;20096;-67
2022/04/29 02:22:31;;;;;;;3.50;2.90;;;;;;;8.88;78.20;101239.03;4455136;32;20115;-67
2022/04/29 02:24:59;;;;;;;5.10;3.30;;;;;;;8.78;78.23;101236.31;4454908;32;20100;-67
2022/04/29 02:27:26;;;;;;;7.32;2.60;;;;;;;8.76;77.09;101232.81;4454969;32;20431;-67
2022/04/29 02:29:53;;;;;;;3.28;2.67;;;;;;;8.81;79.64;101235.47;4454827;32;20153;-67
2022/04/29 02:32:21;;;;;;;3.67;2.83;;;;;;;8.75;77.34;101231.03;4455050;32;20108;-67
2022/04/29 02:34:48;;;;;;;2.85;2.58;;;;;;;8.66;79.55;101230.97;4454853;32;20131;-67
2022/04/29 02:37:15;;;;;;;4.90;3.05;;;;;;;8.59;80.67;101240.53;4454767;32;20084;-67
2022/04/29 02:39:43;;;;;;;3.65;3.10;;;;;;;8.53;81.48;101243.06;4454826;32;20491;-67
2022/04/29 02:42:10;;;;;;;4.60;2.97;;;;;;;8.55;81.86;101241.34;4454765;32;20091;-67
2022/04/29 02:44:38;;;;;;;3.30;3.00;;;;;;;8.58;79.87;101241.34;4454840;32;20177;-67
2022/04/29 02:47:09;;;;;;;3.00;2.50;;;;;;;8.53;81.99;101240.44;4454884;32;20092;-67
2022/04/29 02:49:38;;;;;;;3.92;2.92;;;;;;;8.47;80.90;101245.62;4454648;32;20499;-67
2022/04/29 02:52:07;;;;;;;5.72;2.70;;;;;;;8.48;79.75;101236.91;4454650;32;20476;-67
2022/04/29 02:54:35;;;;;;;3.33;2.97;;;;;;;8.43;79.14;101235.97;4454872;32;20097;-67
2022/04/29 02:57:05;;;;;;;4.82;3.08;;;;;;;8.32;82.74;101234.94;4454964;32;20107;-67
2022/04/29 02:59:33;;;;;;;2.70;2.50;;;;;;;8.26;81.62;101234.88;4454620;32;20165;-67
2022/04/29 03:02:00;;;;;;;7.37;2.42;;;;;;;8.25;78.67;101233.09;4454632;32;20159;-67
2022/04/29 03:04:27;;;;;;;3.78;2.20;;;;;;;8.21;78.16;101231.31;4454640;32;20173;-67
2022/04/29 03:06:56;;;;;;;7.50;2.40;;;;;;;8.25;77.37;101235.75;4454721;32;20138;-67
2022/04/29 03:09:24;;;;;;;2.65;2.45;;;;;;;8.30;75.84;101234.03;4454549;32;20549;-67
2022/04/29 03:11:51;;;;;;;3.35;2.50;;;;;;;8.30;75.61;101241.91;4454561;32;20089;-67
2022/04/29 03:14:19;;;;;;;2.72;2.20;;;;;;;8.29;75.00;101237.53;4454477;32;20104;-67
2022/04/29 03:16:50;;;;;;;3.12;2.40;;;;;;;8.22;75.39;101241.81;4454535;32;20085;-67
2022/04/29 03:19:17;;;;;;;4.28;2.45;;;;;;;8.15;76.36;101248.75;4454644;32;20092;-67
2022/04/29 03:21:45;;;;;;;3.53;2.58;;;;;;;8.16;78.33;101247.00;4454559;32;20089;-67
2022/04/29 03:24:12;;;;;;;9.38;2.55;;;;;;;8.17;79.76;101243.53;4454710;32;20180;-67
2022/04/29 03:26:40;;;;;;;2.75;2.53;;;;;;;8.20;79.75;101245.28;4454491;32;20084;-67
2022/04/29 03:29:08;;;;;;;4.15;2.80;;;;;;;8.22;78.75;101243.56;4454604;32;20126;-67
2022/04/29 03:31:35;;;;;;;3.55;2.80;;;;;;;8.26;78.54;101238.38;4454498;32;20108;-67
2022/04/29 03:34:04;;;;;;;8.00;3.00;;;;;;;8.29;79.86;101246.28;4454683;32;20564;-67
2022/04/29 03:36:32;;;;;;;3.03;2.70;;;;;;;8.28;79.53;101243.66;4454627;32;20092;-67
2022/04/29 03:39:00;;;;;;;2.80;2.50;;;;;;;8.27;80.61;101242.78;4454645;32;20088;-69
2022/04/29 03:41:28;;;;;;;5.43;2.92;;;;;;;8.26;80.42;101240.13;4454435;32;20126;-69
2022/04/29 03:43:58;;;;;;;2.62;2.42;;;;;;;8.32;81.87;101238.44;4454518;32;20097;-69
2022/04/29 03:46:26;;;;;;;9.85;2.92;;;;;;;8.34;80.03;101235.84;4454683;32;20183;-69
2022/04/29 03:51:42;;;;;;;;;;;;;;;8.50;80.31;101243.03;4454838;32;20157;-69
2022/04/29 03:54:10;;;;;;;16.70;3.83;;;;;;;8.59;82.00;101253.66;4454916;32;20013;-70
2022/04/29 03:56:38;;;;;;;4.82;3.00;;;;;;;8.65;81.32;101251.94;4455047;32;20111;-69
2022/04/29 03:59:06;;;;;;;4.62;3.55;;;;;;;8.69;80.79;101254.59;4454400;32;20093;-70
2022/04/29 04:01:35;;;;;;;10.32;3.83;;;;;;;8.74;80.71;101259.94;4452931;32;20108;-70
2022/04/29 04:04:03;;;;;;;6.37;3.45;;;;;;;8.82;80.23;101258.25;4462790;32;20089;-70
2022/04/29 04:09:20;;;;;;;10.02;4.22;;;;;;;8.98;80.50;101254.00;4463294;32;20080;-70
2022/04/29 04:11:48;;;;;;;8.80;3.58;;;;;;;9.10;79.53;101252.34;4457353;32;20503;-70
2022/04/29 04:14:18;;;;;;;6.57;4.03;;;;;;;9.23;77.82;101257.72;4462363;32;20097;-67
2022/04/29 04:16:47;;;;;;;14.10;4.50;;;;;;;9.31;78.24;101253.38;4466634;32;20081;-67
2022/04/29 04:19:15;;;;;;;4.75;4.22;;;;;;;9.42;79.00;101261.34;4459983;32;20130;-67
2022/04/29 04:21:43;;;;;;;23.87;4.45;;;;;;;9.53;77.57;101257.03;4465863;32;20092;-67
2022/04/29 04:24:11;;;;;;;9.35;4.20;;;;;;;9.66;77.38;101268.53;4466230;32;20168;-67
2022/04/29 04:26:38;;;;;;;27.33;4.60;;;;;;;9.85;78.19;101269.50;4454831;32;20149;-67
2022/04/29 04:29:06;;;;;;;14.25;4.40;;;;;;;10.01;76.64;101272.22;4454761;32;20089;-67
2022/04/29 04:31:34;;;;;;;17.42;4.72;;;;;;;10.17;75.82;101267.00;4454444;32;20113;-67
2022/04/29 04:34:49;;;;;;;8.90;3.87;;;;;;;10.33;75.87;101270.63;4454658;32;20097;-67
2022/04/29 04:36:54;;;;;;;12.68;5.03;;;;;;;10.53;73.20;101272.47;4454428;32;20105;-67
2022/04/29 04:39:21;;;;;;;11.68;4.85;;;;;;;10.80;74.33;101277.75;4454249;32;20111;-67
2022/04/29 04:41:50;;;;;;;11.55;4.43;;;;;;;11.00;73.46;101279.56;4461928;32;20100;-67
2022/04/29 04:44:19;;;;;;;7.62;3.95;;;;;;;11.20;73.08;101281.28;4444167;32;20139;-67
2022/04/29 04:46:48;;;;;;;14.10;4.20;;;;;;;11.31;69.70;101279.56;4466375;32;20089;-67
2022/04/29 04:49:16;;;;;;;11.73;4.35;;;;;;;11.47;72.97;101280.41;4459295;32;20089;-67
2022/04/29 04:51:46;;;;;;;14.18;4.57;;;;;;;11.55;72.03;101283.03;4453905;32;20119;-67
2022/04/29 04:54:21;;;;;;;14.07;5.15;;;;;;;11.70;70.71;101280.38;4453880;32;20771;-68
2022/04/29 04:56:48;;;;;;;12.70;5.28;;;;;;;11.83;71.57;101287.38;4439617;32;20150;-67
2022/04/29 04:59:15;;;;;;;10.18;4.20;;;;;;;11.99;70.32;101284.75;4454329;32;20790;-67
2022/04/29 05:01:48;;;;;;;8.77;4.85;;;;;;;12.14;66.22;101288.19;4454068;32;20103;-67
2022/04/29 05:04:19;;;;;;;7.18;4.03;;;;;;;12.31;67.49;101287.25;4454553;32;20104;-67
2022/04/29 05:06:51;;;;;;;6.57;3.37;;;;;;;12.35;64.65;101289.88;4454145;32;20119;-68
2022/04/29 05:09:18;;;;;;;7.35;3.83;;;;;;;12.44;61.19;101292.47;4453551;32;20158;-67
2022/04/29 05:11:46;;;;;;;8.43;3.60;;;;;;;12.62;61.61;101291.50;4454062;32;20164;-67
2022/04/29 05:14:38;;;;;;;6.72;2.83;;;;;;;12.71;58.50;101293.19;4453547;32;20097;-67
2022/04/29 05:17:05;;;;;;;7.75;3.45;;;;;;;12.73;57.25;101294.06;4454038;32;20155;-67
2022/04/29 05:19:36;;;;;;;4.53;2.75;;;;;;;12.81;57.88;101297.53;4453695;32;20096;-68
2022/04/29 05:22:05;;;;;;;12.57;3.62;;;;;;;12.83;54.80;101295.78;4453380;32;20174;-67
2022/04/29 05:24:32;;;;;;;3.62;2.70;;;;;;;12.92;54.72;101298.34;4453931;32;20092;-68
2022/04/29 05:27:04;;;;;;;2.67;2.40;;;;;;;12.96;53.93;101301.84;4453933;32;20142;-67
2022/04/29 05:29:37;;;;;;;6.75;2.50;;;;;;;13.06;54.06;101303.53;4455393;32;20085;-67
2022/04/29 05:32:08;;;;;;;3.65;1.83;;;;;;;13.17;52.20;101300.81;4453869;32;20112;-67
2022/04/29 05:34:38;;;;;;;5.82;2.35;;;;;;;13.21;51.95;101299.00;4453687;32;20443;-67
2022/04/29 05:37:14;;;;;;;8.02;2.47;;;;;;;13.30;52.72;101302.50;4453120;32;20135;-68
2022/04/29 05:42:30;;;;;;;6.30;2.22;;;;;;;13.41;51.50;101304.19;4469195;32;20164;-67
2022/04/29 05:44:59;;;;;;;4.20;2.78;;;;;;;13.49;52.26;101297.03;4465164;32;20096;-67
2022/04/29 05:47:28;;;;;;;6.22;2.53;;;;;;;13.59;52.13;101290.78;4461019;32;20415;-67
2022/04/29 05:49:56;;;;;;;3.85;2.58;;;;;;;13.68;51.42;101298.63;4461797;32;20092;-67
2022/04/29 05:52:24;;;;;;;6.65;2.50;;;;;;;13.81;53.54;101297.59;4450070;32;20127;-67
2022/04/29 05:54:51;;;;;;;5.55;2.58;;;;;;;13.91;51.26;101294.84;4463954;32;20092;-68
2022/04/29 05:57:20;;;;;;;5.12;2.45;;;;;;;14.03;52.44;101300.91;4463322;32;20080;-67
2022/04/29 05:59:48;;;;;;;8.23;2.60;;;;;;;14.13;50.92;101300.78;4468945;32;20578;-67
2022/04/29 06:02:23;;;;;;;2.67;2.15;;;;;;;14.24;52.03;101305.06;4443849;32;20170;-68
2022/04/29 06:04:51;;;;;;;5.03;2.58;;;;;;;14.32;49.37;101310.28;4455639;32;20123;-67
2022/04/29 06:07:19;;;;;;;9.73;2.47;;;;;;;14.42;49.89;101316.34;4455517;32;20794;-67
2022/04/29 06:09:46;;;;;;;2.53;2.30;;;;;;;14.60;49.01;101317.91;4455645;32;20096;-67
2022/04/29 06:12:14;;;;;;;5.85;2.37;;;;;;;14.73;47.29;101323.00;4455617;32;20109;-67
2022/04/29 06:14:44;;;;;;;9.13;2.78;;;;;;;14.82;47.37;101319.34;4455458;32;20096;-67
2022/04/29 06:17:14;;;;;;;5.57;2.22;;;;;;;14.86;47.78;101320.19;4455701;32;20161;-67
2022/04/29 06:19:46;;;;;;;3.40;2.15;;;;;;;14.87;47.50;101317.50;4455710;32;20096;-67
2022/04/29 06:22:15;;;;;;;3.90;2.17;;;;;;;14.99;47.96;101319.13;4455419;32;20471;-67
2022/04/29 06:24:44;;;;;;;6.85;2.30;;;;;;;15.06;46.50;101319.00;4455587;32;20176;-67
2022/04/29 06:27:31;;;;;;;9.07;2.78;;;;;;;15.15;44.65;101322.41;4455690;32;20089;-68
2022/04/29 06:29:58;;;;;;;2.95;2.72;;;;;;;15.22;46.51;101322.28;4455565;32;20104;-68
2022/04/29 06:32:27;;;;;;;6.95;2.70;;;;;;;15.35;45.50;101319.44;4455450;32;20500;-67
2022/04/29 06:34:57;;;;;;;6.82;2.80;;;;;;;15.43;46.04;101323.69;4455489;32;20745;-68
2022/04/29 06:37:24;;;;;;;5.00;2.30;;;;;;;15.49;45.51;101317.41;4454874;32;20089;-68
2022/04/29 06:39:52;;;;;;;4.07;2.53;;;;;;;15.61;46.03;101324.28;4455248;32;20097;-68
2022/04/29 06:42:21;;;;;;;8.40;2.47;;;;;;;15.69;46.01;101319.75;4440882;32;20128;-67
2022/04/29 06:44:50;;;;;;;3.42;2.10;;;;;;;15.80;46.34;101320.44;4455171;32;20101;-68
2022/04/29 06:47:23;;;;;;;9.85;2.55;;;;;;;15.90;43.23;101319.38;4455408;32;20085;-67
2022/04/29 06:49:59;;;;;;;13.43;2.43;;;;;;;16.00;43.98;101320.91;4455583;32;20089;-68
2022/04/29 06:52:28;;;;;;;13.65;4.35;;;;;;;16.01;44.52;101313.84;4455227;32;20138;-68
2022/04/29 06:54:58;;;;;;;4.43;2.92;;;;;;;16.21;51.02;101314.31;4463968;32;20464;-68
2022/04/29 06:57:26;;;;;;;4.22;2.83;;;;;;;16.35;45.73;101315.81;4454802;32;20184;-68
2022/04/29 06:59:53;;;;;;;16.83;3.12;;;;;;;16.43;42.47;101322.72;4455001;32;20154;-68
2022/04/29 07:02:21;;;;;;;4.30;1.60;;;;;;;16.52;45.05;101326.09;4456245;32;20370;-68
2022/04/29 07:04:48;;;;;;;6.12;2.20;;;;;;;16.47;40.71;101318.22;4471068;32;20532;-68
2022/04/29 07:07:16;;;;;;;7.68;2.17;;;;;;;16.45;43.60;101320.03;4466621;32;20080;-68
2022/04/29 07:09:46;;;;;;;9.60;2.20;;;;;;;16.56;43.00;101315.34;4455058;32;20157;-68
2022/04/29 07:12:48;;;;;;;5.45;2.45;;;;;;;16.62;43.63;101317.00;4454835;32;20093;-67
2022/04/29 07:15:16;;;;;;;3.95;1.90;;;;;;;16.59;40.61;101320.59;4453297;32;20490;-68
2022/04/29 07:17:44;;;;;;;5.28;3.10;;;;;;;16.68;40.08;101315.09;4459508;32;20110;-67
2022/04/29 07:20:13;;;;;;;2.55;2.20;;;;;;;16.77;40.37;101314.03;4463240;32;20123;-68
2022/04/29 07:22:42;;;;;;;3.67;2.30;;;;;;;16.80;42.80;101321.94;4460727;32;20775;-68
2022/04/29 07:25:11;;;;;;;3.53;2.20;;;;;;;16.83;39.11;101324.53;4461490;32;20130;-68
2022/04/29 07:27:40;;;;;;;3.20;2.08;;;;;;;16.93;39.25;101326.09;4456988;32;20088;-68
2022/04/29 07:30:10;;;;;;;2.75;2.40;;;;;;;16.99;39.36;101316.19;4458191;32;20108;-68
2022/04/29 07:32:37;;;;;;;3.37;2.37;;;;;;;17.05;38.72;101318.72;4461940;32;20167;-68
2022/04/29 07:43:31;;;;;;;2.75;2.00;;;;;;;17.41;37.59;101312.47;4463508;32;20092;-68
2022/04/29 07:45:59;;;;;;;6.85;2.00;;;;;;;17.51;37.32;101315.78;4462553;32;20778;-68
2022/04/29 07:48:30;;;;;;;5.18;1.85;;;;;;;17.58;37.68;101312.06;4462491;32;20137;-68
2022/04/29 07:50:58;;;;;;;6.82;2.00;;;;;;;17.62;36.75;101315.50;4462996;32;20093;-68
2022/04/29 07:53:25;;;;;;;6.87;2.10;;;;;;;17.71;36.34;101314.41;4462259;32;20105;-68
2022/04/29 07:55:52;;;;;;;17.20;2.22;;;;;;;17.86;36.56;101312.22;4463882;32;20116;-68
2022/04/29 07:58:20;;;;;;;9.93;2.33;;;;;;;17.99;37.49;101315.44;4470392;32;20107;-68
2022/04/29 08:00:48;;;;;;;5.35;2.33;;;;;;;18.09;37.15;101316.94;4465019;32;20156;-68
2022/04/29 08:03:38;;;;;;;2.55;2.12;;;;;;;18.21;39.15;101313.03;4470521;32;20121;-68
2022/04/29 08:06:07;;;;;;;5.32;1.90;;;;;;;18.31;35.02;101322.53;4466387;32;20107;-67
2022/04/29 08:08:35;;;;;;;5.35;2.50;;;;;;;18.19;34.81;101317.53;4456099;32;20465;-67
2022/04/29 08:11:02;;;;;;;8.73;2.70;;;;;;;18.44;38.95;101317.69;4470693;32;20427;-67
2022/04/29 08:13:33;;;;;;;2.80;2.50;;;;;;;18.52;37.42;101309.47;4462469;32;20089;-68
2022/04/29 08:16:25;;;;;;;2.65;2.30;;;;;;;18.71;35.41;101316.03;4459127;32;20104;-68
2022/04/29 08:18:53;;;;;;;6.32;2.03;;;;;;;18.67;34.23;101308.13;4459684;32;20423;-67
2022/04/29 08:21:21;;;;;;;3.40;2.10;;;;;;;18.79;35.79;101313.97;4464831;32;20093;-68
2022/04/29 08:23:49;;;;;;;7.10;2.97;;;;;;;19.01;36.78;101308.88;4467162;32;20104;-68
2022/04/29 08:26:16;;;;;;;11.15;2.58;;;;;;;18.95;35.10;101316.19;4462874;32;20487;-68
2022/04/29 08:28:44;;;;;;;2.45;2.22;;;;;;;19.06;34.58;101296.22;4460551;32;20123;-67
2022/04/29 08:31:11;;;;;;;2.10;2.00;;;;;;;19.16;34.70;101295.94;4469246;32;20104;-67
2022/04/29 08:33:41;;;;;;;5.18;2.72;;;;;;;19.09;33.43;101305.94;4464136;32;20151;-67
2022/04/29 08:36:08;;;;;;;3.95;2.65;;;;;;;19.13;35.23;101296.03;4454713;32;20476;-67
2022/04/29 08:38:38;;;;;;;4.15;2.53;;;;;;;19.21;36.28;101301.97;4454527;32;20115;-67
2022/04/29 08:41:06;;;;;;;12.05;2.30;;;;;;;19.34;33.26;101292.62;4454373;32;20097;-67
2022/04/29 08:43:35;;;;;;;4.72;3.37;;;;;;;19.18;33.49;101289.59;4454136;32;20093;-68
2022/04/29 08:46:08;;;;;;;11.35;2.47;;;;;;;19.18;33.78;101286.03;4454497;32;20100;-68
2022/04/29 08:48:41;;;;;;;7.37;2.75;;;;;;;19.32;34.85;101298.00;4464353;32;20114;-68
2022/04/29 08:51:09;;;;;;;2.80;2.10;;;;;;;19.59;32.80;101295.34;4469145;32;20171;-67
2022/04/29 08:53:36;;;;;;;4.75;1.95;;;;;;;19.54;32.55;101291.94;4469874;32;20101;-68
2022/04/29 08:58:52;;;;;;;;;;;;;;;19.97;36.93;101291.34;4470005;32;20246;-68
2022/04/29 09:01:20;;;;;;;10.02;2.55;;;;;;;20.15;36.25;101272.88;4456959;32;20033;-68
2022/04/29 09:03:47;;;;;;;4.00;2.87;;;;;;;20.28;34.95;101284.81;4464021;32;20097;-68
2022/04/29 09:06:22;;;;;;;3.95;2.22;;;;;;;20.34;34.34;101271.22;4459465;32;21033;-68
2022/04/29 09:08:50;;;;;;;4.68;2.80;;;;;;;20.28;31.68;101267.00;4460447;32;20111;-68
2022/04/29 09:11:27;;;;;;;5.28;2.60;;;;;;;20.52;32.92;101278.56;4462299;32;20148;-68
2022/04/29 09:13:54;;;;;;;6.05;2.40;;;;;;;20.66;31.45;101264.63;4456843;32;20127;-68
2022/04/29 09:16:25;;;;;;;3.30;3.10;;;;;;;20.81;31.80;101265.81;4464180;32;20184;-68
2022/04/29 09:18:55;;;;;;;3.67;2.30;;;;;;;20.86;30.97;101261.16;4456832;32;20088;-68
2022/04/29 09:21:25;;;;;;;3.97;2.90;;;;;;;20.84;32.82;101248.75;4453589;32;20093;-68
2022/04/29 09:23:57;;;;;;;3.28;2.22;;;;;;;21.16;30.34;101255.47;4460839;32;20092;-68
2022/04/29 09:26:35;;;;;;;5.95;2.10;;;;;;;21.52;31.30;101255.75;4459221;32;20104;-69
2022/04/29 09:29:13;;;;;;;9.73;3.47;;;;;;;;;;4455899;32;20076;-69
2022/04/29 09:31:55;;;;;;;14.02;2.30;;;;;;;22.17;32.28;101254.63;4466536;32;20144;-69
2022/04/29 09:35:03;;;;;;;4.35;1.90;;;;;;;22.08;29.83;101251.44;4469609;32;20096;-70
2022/04/29 09:37:31;;;;;;;5.62;1.90;;;;;;;22.47;28.53;101254.13;4466234;32;20192;-70
2022/04/29 09:40:04;;;;;;;4.62;2.45;;;;;;;22.66;27.93;101255.00;4466735;32;20761;-69
2022/04/29 09:42:42;;;;;;;2.45;1.80;;;;;;;22.20;24.20;101245.56;4459364;32;20749;-70
2022/04/29 09:45:19;;;;;;;2.30;2.10;;;;;;;22.53;26.41;101253.84;4461751;32;20096;-70
2022/04/29 09:47:53;;;;;;;4.32;2.53;;;;;;;22.70;28.49;101250.34;4445712;32;20175;-70
2022/04/29 09:50:20;;;;;;;5.07;2.62;;;;;;;22.99;27.59;101253.44;4462761;32;20088;-70
2022/04/29 09:52:49;;;;;;;2.87;1.60;;;;;;;22.38;25.72;101249.19;4459227;32;20208;-69
2022/04/29 09:55:18;;;;;;;4.07;1.75;;;;;;;21.79;26.06;101255.47;4463498;32;20127;-69
2022/04/29 09:57:52;;;;;;;8.57;2.33;;;;;;;21.20;25.91;101244.56;4465145;32;20134;-70
2022/04/29 10:00:19;;;;;;;3.28;1.80;;;;;;;21.51;28.43;101247.75;4463820;32;20102;-69
2022/04/29 10:02:48;;;;;;;2.05;1.85;;;;;;;21.55;26.49;101249.38;4461833;32;20145;-70
2022/04/29 10:05:17;;;;;;;2.72;1.50;;;;;;;21.19;25.96;101242.81;4450600;32;20165;-70
2022/04/29 10:07:48;;;;;;;5.15;1.90;;;;;;;20.97;25.87;101232.12;4461722;32;20092;-69
2022/04/29 10:10:17;;;;;;;2.50;1.73;;;;;;;20.65;29.61;101241.47;4436548;32;20182;-70
2022/04/29 10:12:48;;;;;;;3.12;2.20;;;;;;;21.39;27.41;101235.78;4464766;32;20134;-69
2022/04/29 10:15:20;;;;;;;3.08;2.00;;;;;;;21.64;27.47;101241.78;4469999;32;20637;-70
2022/04/29 10:23:28;;;;;;;6.57;2.37;;;;;;;21.85;26.69;101234.59;4455751;32;20146;-69
2022/04/29 10:25:56;;;;;;;4.85;2.42;;;;;;;22.34;27.37;101229.69;4455414;32;20124;-70
2022/04/29 10:28:25;;;;;;;3.70;2.40;;;;;;;22.76;26.34;101225.88;4466757;32;20123;-70
2022/04/29 10:31:09;;;;;;;2.35;1.98;;;;;;;22.40;28.24;101224.03;4470214;32;20483;-69
2022/04/29 10:33:37;;;;;;;8.85;2.50;;;;;;;22.10;26.03;101220.94;4470096;32;20092;-70
2022/04/29 10:36:08;;;;;;;3.83;2.20;;;;;;;23.00;27.59;101222.91;4469026;32;20124;-69
2022/04/29 10:38:39;;;;;;;10.30;2.42;;;;;;;23.65;26.91;101217.78;4463549;32;20167;-69
2022/04/29 10:41:06;;;;;;;2.60;1.95;;;;;;;23.99;26.04;101217.75;4455185;32;20168;-69
2022/04/29 10:43:40;;;;;;;3.45;2.20;;;;;;;23.39;25.73;101214.62;4452636;32;20216;-69
2022/04/29 10:46:08;;;;;;;8.05;2.50;;;;;;;23.20;26.59;101219.22;4452511;32;20168;-69
2022/04/29 10:48:43;;;;;;;18.42;2.78;;;;;;;23.63;25.57;101212.47;4454232;32;20175;-69
2022/04/29 10:51:17;;;;;;;5.97;2.20;;;;;;;24.37;26.85;101212.03;4453935;32;20084;-70
2022/04/29 10:53:47;;;;;;;3.37;2.20;;;;;;;24.63;23.35;101207.00;4454840;32;20089;-70
2022/04/29 10:56:31;;;;;;;3.87;2.10;;;;;;;24.98;24.70;101199.56;4454128;32;20121;-69
2022/04/29 10:59:09;;;;;;;4.15;1.98;;;;;;;24.93;25.71;101193.59;4454239;32;20518;-69
2022/04/29 11:01:38;;;;;;;4.55;2.42;;;;;;;25.30;22.80;101195.00;4463890;32;20148;-69
2022/04/29 11:04:27;;;;;;;3.85;2.00;;;;;;;25.37;24.24;101195.47;4469570;32;20228;-69
2022/04/29 11:06:55;;;;;;;3.87;2.22;;;;;;;25.26;24.48;101194.28;4464880;32;20511;-69
2022/04/29 11:09:35;;;;;;;12.37;2.50;;;;;;;24.86;23.36;101179.59;4452948;32;20101;-69
2022/04/29 11:12:03;;;;;;;2.87;1.52;;;;;;;24.32;25.30;101184.50;4452991;32;20144;-69
2022/04/29 11:15:13;;;;;;;9.57;2.20;;;;;;;25.13;25.65;101170.88;4453033;32;20084;-69
2022/04/29 11:17:41;;;;;;;2.10;1.90;;;;;;;26.28;23.21;101177.19;4460695;32;20108;-69
2022/04/29 11:20:31;;;;;;;4.70;1.85;;;;;;;27.54;22.82;101175.84;4461251;32;20099;-68
2022/04/29 11:25:59;;;;;;;3.17;2.20;;;;;;;28.17;20.26;101175.94;4460308;32;20092;-69
2022/04/29 11:28:34;;;;;;;5.70;1.80;;;;;;;26.00;22.21;101170.84;4460074;32;20100;-67
2022/04/29 11:31:04;;;;;;;4.10;1.85;;;;;;;24.80;22.21;101166.47;4457269;32;20499;-69
2022/04/29 11:33:38;;;;;;;2.75;2.20;;;;;;;25.09;22.96;101162.06;4452391;32;20174;-70
2022/04/29 11:36:10;;;;;;;3.08;1.80;;;;;;;27.68;20.88;101165.91;4452514;32;20172;-69
2022/04/29 11:38:44;;;;;;;3.65;1.80;;;;;;;29.72;17.95;101165.03;4452407;32;20096;-69
2022/04/29 11:41:19;;;;;;;2.42;1.73;;;;;;;30.83;16.67;101154.09;4453009;32;20101;-69
2022/04/29 11:43:49;;;;;;;6.75;1.83;;;;;;;31.46;16.86;101152.28;4453536;32;20103;-69
2022/04/29 11:46:16;;;;;;;6.40;2.20;;;;;;;31.36;17.89;101146.78;4454600;32;20161;-69
2022/04/29 11:48:51;;;;;;;8.85;2.50;;;;;;;30.37;18.78;101147.06;4456063;32;20108;-69
2022/04/29 11:51:18;;;;;;;5.57;2.58;;;;;;;29.00;18.59;101138.06;4454774;32;20152;-69
2022/04/29 11:54:03;;;;;;;2.00;1.90;;;;;;;27.70;21.23;101134.16;4454492;32;20088;-69
2022/04/29 11:56:38;;;;;;;2.40;1.75;;;;;;;26.14;22.39;101127.59;4454535;32;20118;-69
2022/04/29 11:59:07;;;;;;;;;;;;;;;25.33;21.44;101135.44;4454622;32;20441;-69
2022/04/29 12:01:36;;;;;;;1.98;1.83;;;;;;;24.69;24.70;101129.38;4462539;32;20015;-70
2022/04/29 12:04:05;;;;;;;2.20;1.77;;;;;;;24.59;24.02;101121.91;4470589;32;20160;-70
2022/04/29 12:06:32;;;;;;;2.28;1.90;;;;;;;24.55;24.36;101121.22;4460210;32;20163;-71
2022/04/29 12:09:00;;;;;;;10.40;2.40;;;;;;;24.53;24.93;101117.78;4470240;32;20096;-70